createdAt,value
2022-10-09T00:03:13.745Z,23.34
2022-10-09T00:06:59.413Z,23.28
2022-10-09T00:10:42.301Z,23.23
2022-10-09T00:14:18.674Z,23.20
2022-10-09T00:17:56.594Z,23.15
2022-10-09T00:21:34.667Z,23.10
2022-10-09T00:25:11.609Z,23.05
2022-10-09T00:28:49.654Z,23.00
2022-10-09T00:32:26.934Z,22.97
2022-10-09T00:36:15.729Z,22.92
2022-10-09T00:39:51.571Z,22.89
2022-10-09T00:43:43.664Z,22.86
2022-10-09T00:47:48.033Z,22.83
2022-10-09T00:51:24.778Z,22.81
2022-10-09T00:55:03.770Z,22.76
2022-10-09T00:58:39.588Z,22.74
2022-10-09T01:02:17.749Z,22.70
2022-10-09T01:06:14.667Z,22.69
2022-10-09T01:10:02.062Z,22.67
2022-10-09T01:13:55.471Z,22.63
2022-10-09T01:17:55.853Z,22.62
2022-10-09T01:21:47.255Z,22.60
2022-10-09T01:25:34.467Z,22.57
2022-10-09T01:29:12.275Z,22.54
2022-10-09T01:32:52.116Z,22.52
2022-10-09T01:36:30.798Z,22.50
2022-10-09T01:40:10.489Z,22.49
2022-10-09T01:43:46.303Z,22.47
2022-10-09T01:47:25.061Z,22.46
2022-10-09T01:51:04.694Z,22.43
2022-10-09T01:55:08.869Z,22.39
2022-10-09T01:59:16.230Z,22.36
2022-10-09T02:02:53.939Z,22.32
2022-10-09T02:06:32.159Z,22.29
2022-10-09T02:10:10.215Z,22.24
2022-10-09T02:13:47.771Z,22.21
2022-10-09T02:17:29.327Z,22.19
2022-10-09T02:21:46.432Z,22.18
2022-10-09T02:25:23.328Z,22.15
2022-10-09T02:29:00.077Z,22.12
2022-10-09T02:32:42.848Z,22.10
2022-10-09T02:36:24.684Z,22.08
2022-10-09T02:40:10.861Z,22.07
2022-10-09T02:43:52.415Z,22.05
2022-10-09T02:47:32.741Z,22.04
2022-10-09T02:51:08.560Z,22.02
2022-10-09T02:54:46.834Z,22.00
2022-10-09T02:58:25.009Z,21.97
2022-10-09T03:02:01.784Z,21.95
2022-10-09T03:05:39.893Z,21.94
2022-10-09T03:09:17.403Z,21.94
2022-10-09T03:12:55.046Z,21.91
2022-10-09T03:16:32.468Z,21.88
2022-10-09T03:20:10.453Z,21.86
2022-10-09T03:23:49.717Z,21.82
2022-10-09T03:27:25.901Z,21.80
2022-10-09T03:31:03.736Z,21.79
2022-10-09T03:34:41.020Z,21.76
2022-10-09T03:38:18.786Z,21.74
2022-10-09T03:41:56.935Z,21.70
2022-10-09T03:45:34.316Z,21.68
2022-10-09T03:49:13.211Z,21.66
2022-10-09T03:52:51.494Z,21.65
2022-10-09T03:56:27.507Z,21.64
2022-10-09T04:00:06.942Z,21.63
2022-10-09T04:03:42.745Z,21.63
2022-10-09T04:07:21.511Z,21.62
2022-10-09T04:11:01.853Z,21.62
2022-10-09T04:14:38.786Z,21.60
2022-10-09T04:18:15.945Z,21.59
2022-10-09T04:21:53.398Z,21.58
2022-10-09T04:25:30.545Z,21.56
2022-10-09T04:29:09.231Z,21.54
2022-10-09T04:32:46.440Z,21.51
2022-10-09T04:36:25.172Z,21.49
2022-10-09T04:40:03.190Z,21.49
2022-10-09T04:43:39.778Z,21.47
2022-10-09T04:47:17.349Z,21.45
2022-10-09T04:50:54.699Z,21.44
2022-10-09T04:54:35.122Z,21.43
2022-10-09T04:58:13.307Z,21.42
2022-10-09T05:01:49.263Z,21.40
2022-10-09T05:05:26.781Z,21.37
2022-10-09T05:09:04.316Z,21.35
2022-10-09T05:12:42.617Z,21.35
2022-10-09T05:16:23.422Z,21.35
2022-10-09T05:19:59.476Z,21.33
2022-10-09T05:23:37.655Z,21.31
2022-10-09T05:27:14.697Z,21.29
2022-10-09T05:30:52.769Z,21.27
2022-10-09T05:34:30.866Z,21.25
2022-10-09T05:38:07.688Z,21.22
2022-10-09T05:41:45.349Z,21.21
2022-10-09T05:45:24.135Z,21.18
2022-10-09T05:49:04.361Z,21.18
2022-10-09T05:52:40.809Z,21.19
2022-10-09T05:56:22.920Z,21.19
2022-10-09T06:00:00.218Z,21.18
2022-10-09T06:03:38.393Z,21.17
2022-10-09T06:07:15.125Z,21.17
2022-10-09T06:10:51.991Z,21.17
2022-10-09T06:14:30.654Z,21.17
2022-10-09T06:18:07.806Z,21.19
2022-10-09T06:21:45.364Z,21.21
2022-10-09T06:25:23.609Z,21.23
2022-10-09T06:29:02.685Z,21.26
2022-10-09T06:32:38.867Z,21.29
2022-10-09T06:36:25.065Z,21.33
2022-10-09T06:40:05.552Z,21.36
2022-10-09T06:43:43.245Z,21.42
2022-10-09T06:47:19.239Z,21.48
2022-10-09T06:51:08.238Z,21.55
2022-10-09T06:54:44.486Z,21.65
2022-10-09T06:58:21.944Z,21.84
2022-10-09T07:01:59.817Z,22.06
2022-10-09T07:05:39.316Z,22.23
2022-10-09T07:09:15.936Z,22.38
2022-10-09T07:12:53.528Z,22.54
2022-10-09T07:16:32.923Z,22.72
2022-10-09T07:20:09.387Z,22.91
2022-10-09T07:23:47.628Z,23.12
2022-10-09T07:27:24.219Z,23.33
2022-10-09T07:31:06.299Z,23.57
2022-10-09T07:34:44.197Z,23.82
2022-10-09T07:38:19.920Z,24.08
2022-10-09T07:41:57.786Z,24.33
2022-10-09T07:45:37.389Z,24.59
2022-10-09T07:49:13.208Z,24.84
2022-10-09T07:52:52.559Z,25.12
2022-10-09T07:56:34.796Z,25.38
2022-10-09T08:00:11.931Z,25.66
2022-10-09T08:03:49.512Z,25.88
2022-10-09T08:07:31.338Z,26.09
2022-10-09T08:11:12.231Z,26.29
2022-10-09T08:14:48.701Z,26.49
2022-10-09T08:18:25.870Z,26.63
2022-10-09T08:22:03.940Z,26.77
2022-10-09T08:25:41.499Z,26.87
2022-10-09T08:29:18.649Z,26.94
2022-10-09T08:32:57.032Z,26.97
2022-10-09T08:36:34.591Z,26.99
2022-10-09T08:40:26.613Z,26.99
2022-10-09T08:44:26.126Z,26.96
2022-10-09T08:48:08.973Z,27.09
2022-10-09T08:51:45.480Z,27.31
2022-10-09T08:55:29.801Z,27.45
2022-10-09T08:59:05.364Z,27.45
2022-10-09T09:03:26.646Z,27.45
2022-10-09T09:07:11.442Z,27.38
2022-10-09T09:11:22.290Z,27.29
2022-10-09T09:15:30.654Z,27.30
2022-10-09T09:19:18.503Z,27.26
2022-10-09T09:22:58.060Z,27.21
2022-10-09T09:26:34.587Z,27.17
2022-10-09T09:30:35.769Z,27.31
2022-10-09T09:34:28.412Z,27.50
2022-10-09T09:38:04.722Z,27.46
2022-10-09T09:41:43.716Z,27.28
2022-10-09T09:45:23.879Z,27.14
2022-10-09T09:49:00.679Z,27.12
2022-10-09T09:52:42.330Z,27.23
2022-10-09T09:56:18.893Z,27.34
2022-10-09T10:00:19.237Z,27.32
2022-10-09T10:04:01.423Z,27.17
2022-10-09T10:07:39.281Z,26.91
2022-10-09T10:11:18.519Z,26.67
2022-10-09T10:14:54.706Z,26.55
2022-10-09T10:18:41.955Z,26.59
2022-10-09T10:22:25.114Z,26.70
2022-10-09T10:26:07.046Z,26.77
2022-10-09T10:29:47.022Z,26.97
2022-10-09T10:33:27.988Z,27.17
2022-10-09T10:37:14.353Z,27.38
2022-10-09T10:41:17.493Z,27.63
2022-10-09T10:45:04.164Z,27.91
2022-10-09T10:48:43.837Z,28.20
2022-10-09T10:52:44.296Z,28.43
2022-10-09T10:56:30.094Z,28.68
2022-10-09T11:00:09.942Z,28.92
2022-10-09T11:04:13.465Z,29.05
2022-10-09T11:08:07.991Z,28.95
2022-10-09T11:11:53.086Z,28.91
2022-10-09T11:16:00.617Z,28.99
2022-10-09T11:19:45.130Z,29.06
2022-10-09T11:23:56.945Z,29.08
2022-10-09T11:27:47.402Z,29.01
2022-10-09T11:31:31.762Z,28.93
2022-10-09T11:35:18.749Z,28.98
2022-10-09T11:39:04.950Z,29.18
2022-10-09T11:42:45.589Z,29.49
2022-10-09T11:47:09.573Z,29.75
2022-10-09T11:51:03.238Z,29.89
2022-10-09T11:54:39.149Z,30.12
2022-10-09T11:58:20.190Z,30.38
2022-10-09T12:02:01.400Z,30.38
2022-10-09T12:05:47.008Z,30.20
2022-10-09T12:09:37.734Z,29.97
2022-10-09T12:13:57.153Z,29.73
2022-10-09T12:17:35.117Z,29.73
2022-10-09T12:21:28.962Z,29.79
2022-10-09T12:25:27.486Z,29.79
2022-10-09T12:29:04.328Z,29.84
2022-10-09T12:32:46.420Z,29.91
2022-10-09T12:36:25.162Z,29.94
2022-10-09T12:40:15.975Z,29.89
2022-10-09T12:43:54.998Z,29.84
2022-10-09T12:47:35.068Z,29.75
2022-10-09T12:51:17.328Z,29.79
2022-10-09T12:54:53.500Z,29.77
2022-10-09T12:58:36.226Z,29.66
2022-10-09T13:02:14.273Z,29.67
2022-10-09T13:05:50.528Z,29.82
2022-10-09T13:09:39.752Z,29.88
2022-10-09T13:13:23.669Z,29.94
2022-10-09T13:17:00.330Z,29.83
2022-10-09T13:20:37.348Z,29.78
2022-10-09T13:24:14.905Z,29.79
2022-10-09T13:27:53.597Z,30.03
2022-10-09T13:31:31.810Z,30.15
2022-10-09T13:35:08.201Z,30.22
2022-10-09T13:38:47.298Z,30.26
2022-10-09T13:42:26.502Z,30.12
2022-10-09T13:46:03.467Z,30.05
2022-10-09T13:49:40.388Z,30.14
2022-10-09T13:53:18.150Z,30.03
2022-10-09T13:56:55.517Z,29.71
2022-10-09T14:00:33.743Z,29.51
2022-10-09T14:04:11.139Z,29.41
2022-10-09T14:07:49.426Z,29.35
2022-10-09T14:11:27.076Z,29.35
2022-10-09T14:15:06.897Z,29.31
2022-10-09T14:18:43.220Z,29.19
2022-10-09T14:22:20.680Z,29.14
2022-10-09T14:26:02.888Z,29.10
2022-10-09T14:29:39.125Z,29.02
2022-10-09T14:33:18.246Z,28.89
2022-10-09T14:36:56.753Z,28.74
2022-10-09T14:40:33.905Z,28.58
2022-10-09T14:44:10.644Z,28.53
2022-10-09T14:47:49.947Z,28.46
2022-10-09T14:51:27.505Z,28.40
2022-10-09T14:55:04.430Z,28.38
2022-10-09T14:58:41.805Z,28.33
2022-10-09T15:02:20.292Z,28.25
2022-10-09T15:06:03.352Z,28.21
2022-10-09T15:09:39.230Z,28.08
2022-10-09T15:13:16.958Z,27.94
2022-10-09T15:16:56.488Z,27.86
2022-10-09T15:20:33.100Z,27.77
2022-10-09T15:24:11.077Z,27.64
2022-10-09T15:27:51.317Z,27.62
2022-10-09T15:31:36.546Z,27.67
2022-10-09T15:35:12.449Z,27.70
2022-10-09T15:38:51.215Z,27.74
2022-10-09T15:42:27.673Z,27.75
2022-10-09T15:46:05.747Z,27.70
2022-10-09T15:49:44.437Z,27.60
2022-10-09T15:53:23.438Z,27.44
2022-10-09T15:56:59.348Z,27.31
2022-10-09T16:00:38.987Z,27.18
2022-10-09T16:04:14.876Z,27.09
2022-10-09T16:07:53.871Z,27.02
2022-10-09T16:11:31.130Z,26.91
2022-10-09T16:15:08.791Z,26.84
2022-10-09T16:18:47.166Z,26.79
2022-10-09T16:22:23.496Z,26.74
2022-10-09T16:26:02.615Z,26.71
2022-10-09T16:29:40.254Z,26.65
2022-10-09T16:33:17.302Z,26.59
2022-10-09T16:36:54.765Z,26.52
2022-10-09T16:40:57.505Z,26.46
2022-10-09T16:44:28.264Z,26.37
2022-10-09T16:48:07.823Z,26.28
2022-10-09T16:51:44.238Z,26.15
2022-10-09T16:55:22.545Z,26.06
2022-10-09T16:59:01.404Z,25.98
2022-10-09T17:02:37.229Z,25.86
2022-10-09T17:06:18.370Z,25.68
2022-10-09T17:09:56.149Z,25.50
2022-10-09T17:13:32.126Z,25.37
2022-10-09T17:17:11.762Z,25.28
2022-10-09T17:20:47.586Z,25.20
2022-10-09T17:24:25.654Z,25.14
2022-10-09T17:28:07.880Z,25.07
2022-10-09T17:31:44.817Z,25.01
2022-10-09T17:35:22.418Z,24.97
2022-10-09T17:39:00.399Z,24.92
2022-10-09T17:42:37.145Z,24.88
2022-10-09T17:46:17.907Z,24.85
2022-10-09T17:49:55.236Z,24.78
2022-10-09T17:53:32.181Z,24.75
2022-10-09T17:57:09.328Z,24.69
2022-10-09T18:00:49.880Z,24.65
2022-10-09T18:04:26.514Z,24.63
2022-10-09T18:08:04.050Z,24.62
2022-10-09T18:11:41.712Z,24.60
2022-10-09T18:15:19.685Z,24.58
2022-10-09T18:19:02.982Z,24.55
2022-10-09T18:22:40.534Z,24.52
2022-10-09T18:26:19.056Z,24.49
2022-10-09T18:29:56.270Z,24.46
2022-10-09T18:33:32.976Z,24.45
2022-10-09T18:37:10.931Z,24.44
2022-10-09T18:40:48.544Z,24.43
2022-10-09T18:44:25.587Z,24.41
2022-10-09T18:48:03.763Z,24.37
2022-10-09T18:51:45.317Z,24.35
2022-10-09T18:55:22.192Z,24.33
2022-10-09T18:59:03.921Z,24.31
2022-10-09T19:06:22.922Z,24.29
2022-10-09T19:10:00.173Z,24.27
2022-10-09T19:13:36.410Z,24.26
2022-10-09T19:17:15.057Z,24.26
2022-10-09T19:20:53.508Z,24.26
2022-10-09T19:24:34.093Z,24.23
2022-10-09T19:28:11.094Z,24.20
2022-10-09T19:31:49.231Z,24.18
2022-10-09T19:35:25.449Z,24.15
2022-10-09T19:39:09.988Z,24.15
2022-10-09T19:42:46.503Z,24.13
2022-10-09T19:46:23.253Z,24.13
2022-10-09T19:50:01.425Z,24.14
2022-10-09T19:53:39.990Z,24.13
2022-10-09T19:57:16.445Z,24.13
2022-10-09T20:00:54.980Z,24.13
2022-10-09T20:04:31.663Z,24.13
2022-10-09T20:08:10.450Z,24.12
2022-10-09T20:11:47.701Z,24.12
2022-10-09T20:15:24.651Z,24.10
2022-10-09T20:19:04.785Z,24.09
2022-10-09T20:22:41.405Z,24.09
2022-10-09T20:26:21.094Z,24.08
2022-10-09T20:29:58.129Z,24.07
2022-10-09T20:33:36.827Z,24.05
2022-10-09T20:37:13.439Z,24.04
2022-10-09T20:40:51.149Z,24.03
2022-10-09T20:44:29.253Z,24.02
2022-10-09T20:48:08.073Z,24.01
2022-10-09T20:51:43.943Z,23.99
2022-10-09T20:55:21.830Z,23.98
2022-10-09T20:59:00.485Z,23.96
2022-10-09T21:02:37.025Z,23.95
2022-10-09T21:06:18.226Z,23.93
2022-10-09T21:09:57.137Z,23.90
2022-10-09T21:13:33.614Z,23.87
2022-10-09T21:17:11.934Z,23.84
2022-10-09T21:20:49.129Z,23.80
2022-10-09T21:24:26.841Z,23.75
2022-10-09T21:28:05.239Z,23.71
2022-10-09T21:31:42.220Z,23.67
2022-10-09T21:35:19.262Z,23.63
2022-10-09T21:39:00.105Z,23.58
2022-10-09T21:42:36.221Z,23.55
2022-10-09T21:46:14.703Z,23.52
2022-10-09T21:49:51.752Z,23.49
2022-10-09T21:53:29.054Z,23.46
2022-10-09T21:57:07.692Z,23.42
2022-10-09T22:00:44.353Z,23.38
2022-10-09T22:04:23.895Z,23.34
2022-10-09T22:08:00.132Z,23.31
2022-10-09T22:11:37.932Z,23.28
2022-10-09T22:15:15.598Z,23.25
2022-10-09T22:18:55.813Z,23.21
2022-10-09T22:22:32.044Z,23.18
2022-10-09T22:26:16.056Z,23.13
2022-10-09T22:29:52.486Z,23.10
2022-10-09T22:33:30.046Z,23.08
2022-10-09T22:37:07.506Z,23.05
2022-10-09T22:40:47.375Z,23.03
2022-10-09T22:44:23.551Z,22.98
2022-10-09T22:48:01.211Z,22.95
2022-10-09T22:51:39.077Z,22.91
2022-10-09T22:55:16.637Z,22.87
2022-10-09T22:58:54.951Z,22.84
2022-10-09T23:02:32.781Z,22.81
2022-10-09T23:06:12.549Z,22.79
2022-10-09T23:09:48.920Z,22.77
2022-10-09T23:13:25.867Z,22.75
2022-10-09T23:17:04.592Z,22.72
2022-10-09T23:20:41.967Z,22.69
2022-10-09T23:24:20.085Z,22.67
2022-10-09T23:27:57.031Z,22.65
2022-10-09T23:31:35.507Z,22.65
2022-10-09T23:35:12.764Z,22.63
2022-10-09T23:38:51.094Z,22.61
2022-10-09T23:42:28.203Z,22.59
2022-10-09T23:46:08.434Z,22.56
2022-10-09T23:49:45.263Z,22.54
2022-10-09T23:53:24.248Z,22.52
2022-10-09T23:56:59.967Z,22.50
